| time (UTC) | temp F | wind direction | speed MPH | gust MPH | rain 1hr in | rain 24hr in | rain mn in | humidity % | barometer mb |
| 20260505101557 | 54 | 61 | 1.0 | 4.0 | 0.00 | 0.00 | 0.00 | 84 | 1008.0 |
| 20260505100058 | 54 | 61 | 1.0 | 4.0 | 0.00 | 0.00 | 0.00 | 85 | 1007.9 |
| 20260505094552 | 54 | 0 | 0.0 | 2.0 | 0.00 | 0.00 | 0.00 | 85 | 1007.8 |
| 20260505093054 | 54 | 239 | 0.0 | 2.0 | 0.00 | 0.00 | 0.00 | 84 | 1007.9 |
| 20260505091550 | 54 | 47 | 1.0 | 3.0 | 0.00 | 0.00 | 0.00 | 85 | 1007.7 |
| 20260505090104 | 54 | 61 | 1.0 | 2.0 | 0.00 | 0.00 | 0.00 | 85 | 1007.7 |
| 20260505084554 | 55 | 0 | 0.0 | 2.0 | 0.00 | 0.00 | 0.00 | 84 | 1007.5 |
| 20260505083100 | 55 | 34 | 1.0 | 3.0 | 0.00 | 0.00 | 0.00 | 84 | 1007.5 |
| 20260505081557 | 56 | 68 | 1.0 | 3.0 | 0.00 | 0.00 | 0.00 | 83 | 1007.4 |
| 20260505080055 | 57 | 0 | 0.0 | 2.0 | 0.00 | 0.00 | 0.00 | 81 | 1007.4 |
| 20260505074557 | 57 | 34 | 1.0 | 2.0 | 0.00 | 0.00 | 0.00 | 81 | 1007.2 |
| 20260505073100 | 57 | 221 | 0.0 | 11.0 | 0.00 | 0.00 | 0.00 | 81 | 1007.3 |
| 20260505071557 | 56 | 0 | 0.0 | 2.0 | 0.00 | 0.00 | 0.00 | 81 | 1007.0 |
| 20260505070054 | 57 | 129 | 0.0 | 2.0 | 0.00 | 0.00 | 0.00 | 81 | 1006.6 |
| 20260505064556 | 57 | 0 | 0.0 | 2.0 | 0.00 | 0.00 | 0.00 | 80 | 1006.5 |
| 20260505063053 | 58 | 178 | 0.0 | 2.0 | 0.00 | 0.00 | 0.00 | 79 | 1006.5 |
| 20260505061602 | 58 | 51 | 1.0 | 2.0 | 0.00 | 0.00 | 0.00 | 78 | 1006.4 |
| 20260505060058 | 59 | 232 | 0.0 | 1.0 | 0.00 | 0.00 | 0.00 | 76 | 1006.1 |
| 20260505054557 | 60 | 0 | 0.0 | 2.0 | 0.00 | 0.00 | 0.00 | 75 | 1006.1 |
| 20260505053106 | 61 | 221 | 0.0 | 2.0 | 0.00 | 0.00 | 0.00 | 74 | 1006.1 |
| 20260505051556 | 62 | 51 | 0.0 | 2.0 | 0.00 | 0.00 | 0.00 | 72 | 1006.2 |
| 20260505041558 | 65 | 59 | 3.0 | 6.0 | 0.00 | 0.00 | 0.00 | 68 | 1005.8 |
| 20260505034559 | 69 | 57 | 2.0 | 4.0 | 0.00 | 0.00 | 0.00 | 58 | 1005.5 |
| 20260505033112 | 71 | 108 | 2.0 | 4.0 | 0.00 | 0.00 | 0.00 | 56 | 1005.3 |
| 20260505031553 | 73 | 76 | 1.0 | 4.0 | 0.00 | 0.00 | 0.00 | 52 | 1005.2 |
| 20260505030055 | 76 | 70 | 1.0 | 6.0 | 0.00 | 0.00 | 0.00 | 47 | 1005.1 |
| 20260505024557 | 78 | 171 | 2.0 | 3.0 | 0.00 | 0.00 | 0.00 | 47 | 1005.0 |
| 20260505023104 | 80 | 76 | 1.0 | 3.0 | 0.00 | 0.00 | 0.00 | 45 | 1005.0 |
| 20260505021556 | 82 | 67 | 1.0 | 4.0 | 0.00 | 0.00 | 0.00 | 44 | 1005.0 |
| 20260505020053 | 84 | 193 | 0.0 | 3.0 | 0.00 | 0.00 | 0.00 | 37 | 1005.0 |
| 20260505014552 | 84 | 78 | 1.0 | 5.0 | 0.00 | 0.00 | 0.00 | 34 | 1005.1 |
| 20260505013054 | 85 | 158 | 1.0 | 4.0 | 0.00 | 0.00 | 0.00 | 30 | 1005.3 |
| 20260505011601 | 85 | 165 | 1.0 | 7.0 | 0.00 | 0.00 | 0.00 | 29 | 1005.3 |
| 20260505004558 | 84 | 93 | 1.0 | 7.0 | 0.00 | 0.00 | 0.00 | 30 | 1005.5 |
| 20260505003050 | 85 | 161 | 1.0 | 7.0 | 0.00 | 0.00 | 0.00 | 29 | 1005.6 |
| 20260505001555 | 85 | 162 | 2.0 | 7.0 | 0.00 | 0.00 | 0.00 | 29 | 1005.7 |
| 20260505000056 | 85 | 120 | 3.0 | 6.0 | 0.00 | 0.00 | 0.00 | 28 | 1005.8 |
| 20260504234616 | 84 | 0 | 1.0 | 7.0 | 0.00 | 0.00 | 0.00 | 28 | 1005.8 |
| 20260504233051 | 85 | 64 | 3.0 | 9.0 | 0.00 | 0.00 | 0.00 | 29 | 1005.9 |
| 20260504231559 | 84 | 190 | 3.0 | 9.0 | 0.00 | 0.00 | 0.00 | 31 | 1005.9 |
| 20260504230057 | 83 | 247 | 3.0 | 7.0 | 0.00 | 0.00 | 0.00 | 30 | 1006.2 |
| 20260504224604 | 83 | 151 | 3.0 | 8.0 | 0.00 | 0.00 | 0.00 | 30 | 1006.3 |
| 20260504223054 | 83 | 244 | 4.0 | 10.0 | 0.00 | 0.00 | 0.00 | 36 | 1006.5 |
| 20260504221603 | 82 | 164 | 4.0 | 8.0 | 0.00 | 0.00 | 0.00 | 30 | 1006.7 |
| 20260504220058 | 82 | 147 | 4.0 | 8.0 | 0.00 | 0.00 | 0.00 | 30 | 1006.9 |
| 20260504214556 | 81 | 157 | 4.0 | 9.0 | 0.00 | 0.00 | 0.00 | 33 | 1007.1 |
| 20260504213102 | 82 | 191 | 4.0 | 8.0 | 0.00 | 0.00 | 0.00 | 34 | 1007.2 |
| 20260504211550 | 81 | 250 | 4.0 | 10.0 | 0.00 | 0.00 | 0.00 | 35 | 1007.2 |
| 20260504204637 | 80 | 198 | 3.0 | 8.0 | 0.00 | 0.00 | 0.00 | 33 | 1007.7 |
| 20260504203059 | 80 | 325 | 3.0 | 8.0 | 0.00 | 0.00 | 0.00 | 32 | 1007.9 |
| 20260504201559 | 79 | 226 | 5.0 | 11.0 | 0.00 | 0.00 | 0.00 | 32 | 1008.0 |
| 20260504200057 | 78 | 279 | 4.0 | 10.0 | 0.00 | 0.00 | 0.00 | 38 | 1008.0 |
| 20260504194556 | 78 | 182 | 4.0 | 9.0 | 0.00 | 0.00 | 0.00 | 41 | 1008.1 |
| 20260504193053 | 77 | 227 | 5.0 | 12.0 | 0.00 | 0.00 | 0.00 | 45 | 1008.2 |
| 20260504191555 | 76 | 236 | 6.0 | 11.0 | 0.00 | 0.00 | 0.00 | 42 | 1008.2 |
| 20260504190059 | 76 | 284 | 7.0 | 11.0 | 0.00 | 0.00 | 0.00 | 45 | 1008.3 |
| 20260504184604 | 75 | 229 | 3.0 | 11.0 | 0.00 | 0.00 | 0.00 | 41 | 1008.3 |
| 20260504183058 | 75 | 219 | 5.0 | 10.0 | 0.00 | 0.00 | 0.00 | 44 | 1008.4 |
| 20260504181552 | 74 | 235 | 3.0 | 11.0 | 0.00 | 0.00 | 0.00 | 39 | 1008.6 |
| 20260504180055 | 73 | 261 | 4.0 | 10.0 | 0.00 | 0.00 | 0.00 | 43 | 1008.7 |
| 20260504174552 | 73 | 241 | 6.0 | 10.0 | 0.00 | 0.00 | 0.00 | 47 | 1008.7 |
| 20260504173050 | 72 | 214 | 5.0 | 10.0 | 0.00 | 0.00 | 0.00 | 49 | 1008.7 |
| 20260504171553 | 71 | 255 | 5.0 | 9.0 | 0.00 | 0.00 | 0.00 | 53 | 1008.6 |
| 20260504160109 | 66 | 246 | 1.0 | 4.0 | 0.00 | 0.00 | 0.00 | 62 | 1008.9 |